Terminal Aerodrome Forecast
Issued by NWS Houston/Galveston TX

Home | Current Version | Previous Version | Text Only | Print | Product List | Glossary On
Versions: 1 2 3 4 5 6 7 8 9 10 11 12 13 14 15 16 17 18 19 20 21 22 23 24 25
000
FTUS44 KHGX 191430 AAA
TAFHOU
TAF AMD
KHOU 191430Z 1915/2012 08008KT P6SM -RA SCT060 BKN080 OVC100
      TEMPO 1915/1917 4SM SHRA OVC035
     FM191700 07005KT P6SM VCSH OVC025
     FM191900 13010KT P6SM OVC035
     FM200000 11007KT P6SM OVC015
     FM200300 13007KT P6SM OVC008=

USA.gov is the U.S. government's official web portal to all federal, state and local government web resources and services.